Terminal Aerodrome Forecast
Issued by NWS

Home | Current Version | Previous Version | Text Only | Print | Product List | Glossary On
Versions: 1 2 3 4 5 6 7 8 9 10 11 12 13 14 15 16 17 18 19 20 21 22 23 24 25 26 27 28 29
000
FTUS43 KMKX 122328
TAFUES
TAF
KUES 122328Z 1300/1324 29006KT P6SM FEW200
     FM130700 VRB03KT 6SM -SHSN OVC045
     FM131100 15009KT 4SM -SN OVC030
     FM131300 15010KT 2SM -SN OVC020
     FM132000 29008KT 4SM -SN OVC020
     FM132200 32010KT 1 1/2SM -SN OVC020=

USA.gov is the U.S. government's official web portal to all federal, state and local government web resources and services.